logo
Search for airport 
image banner adimage banner adimage banner ad
image banner ad

ED2372 - Prenzlau Kkrhs.

Located in , Germany

ICAO - , IATA -

Data provided by Airmate  

General information

Coordinates: N53°20'2" E13°51'59"
Elevation is 81 feet MSL.
 
View others Airports in Brandenburg

Operational data

Special qualification required
Current time UTC:
Current local time:
Weather at : EDAH - Heringsdorf ( 63 km )
METAR: EDAH 220150Z AUTO 21006KT 9999 // BKN008/// 19/19 Q1006
TAF: TAF EDAH 211700Z 2118/2203 03007KT 9999 SCT030 TEMPO 2118/2124 SHRA BKN030TCU BECMG 2119/2121 09005KT BECMG 2121/2124 18004KT 4000 BR
View NOTAMs / SUP AIP / TFR affecting this airport [VIEW]
Communications frequencies: [VIEW]

Runways:

Airport contact information

Address: Germany

Satellite view of ED2372